Marana, AZ (85658)

11:27 AM MST on September 18, 2014 (GMT -0700)
El Tiro Gliderport | Change Station
CLOSE
Current Station
Personal Weather Station
Location: Marana, AZ
Elevation: 2100 ft
Nearby Weather Stations

Elev 2100 ft 32.43 °N, 111.39 °W | Updated 1 second ago

Mostly Cloudy
Mostly Cloudy
79.7 °F
Feels Like 82 °F
N
4.9
Wind Variable Wind from NW
Gusts 4.9 mph

Today
High -- | Low -- °F
--% Chance of Precip.
Yesterday
High -- | Low -- °F
Precip. -- in
6:10 AM 6:27 PM
Waning Crescent, 25% visible
Pressure 29.89 in
Visibility 10.0 miles
Clouds Overcast 5000 ft
Heat Index 82 °F
Dew Point 69 °F
Humidity 70%
Rainfall 0.00 in
Snow Depth 0 in , 0 in , 0 in
UV 3 out of 12
Pollen .90 out of 12
Air Quality Not available.
Flu Activity Not available.
METAR KRYN 181755Z 09005KT 10SM OVC050 26/19 A2989

More Conditions Fewer Conditions

Pressure 29.89 in
Visibility 10.0 miles
Clouds Overcast 5000 ft
Heat Index 82 °F
Dew Point 69 °F
Humidity 70%
Rainfall 0.00 in
Snow Depth 0 in , 0 in , 0 in
UV 3 out of 12
Pollen .90 out of 12
Air Quality Not available.
Flu Activity Not available.
METAR KRYN 181755Z 09005KT 10SM OVC050 26/19 A2989

More Conditions Fewer Conditions

10-Day Weather Forecast

Almanac

Astronomy

Sep. 18, 2014 Rise Set
Actual Time 6:10 AM MST 6:27 PM MST
Civil Twilight 5:46 AM MST 6:51 PM MST
Nautical Twilight 5:17 AM MST 7:20 PM MST
Astronomical Twilight 4:48 AM MST 7:49 PM MST
Moon 1:19 AM MST 3:08 PM MST
Length of Visible Light 13h 05m
Length of Day
12h 16m
Tomorrow will be 1m 59s shorter.
Waning Crescent, 25% of the Moon is Illuminated
Today
Waning Crescent
Sep 24
New
Oct 1
First Quarter
Oct 8
Full
Oct 15
Last Quarter

Today's Extremes

State Highs State Lows

Community

WunderPhotos

Upload Photos

1,754,414 photos uploaded!

Nearby

Snow Depth

Station Depth Elevation
Wildcat 0 in 7850 ft
Fry 0 in 7200 ft
White Horse Lake 0 in 7180 ft
Beaver Head 15 in 7990 ft
Snowslide Canyon 0 in 9730 ft

Earthquake Activity

City Distance Mag. Time & Date
No recent earthquake activity has been reported nearby.
Minimum magnitude displayed is 2.5.

Coastal Water Temperatures

Place Temperature
No Stations Reporting

Nearby Weather Stations